createdAt,value
2023-07-21T00:12:14.495Z,0.00
2023-07-21T00:13:15.978Z,0.00
2023-07-21T00:15:30.990Z,0.00
2023-07-21T00:16:31.027Z,0.00
2023-07-21T00:17:31.155Z,0.00
2023-07-21T00:24:14.235Z,0.00
2023-07-21T00:25:13.788Z,0.00
2023-07-21T00:39:12.774Z,0.00
2023-07-21T01:04:31.286Z,0.00
2023-07-21T01:10:00.194Z,0.00
2023-07-21T01:15:05.993Z,0.00
2023-07-21T01:25:52.999Z,0.00
2023-07-21T01:31:35.273Z,0.00
2023-07-21T01:32:35.527Z,0.00
2023-07-21T01:33:35.348Z,0.00
2023-07-21T01:34:35.365Z,0.00
2023-07-21T01:35:35.390Z,0.00
2023-07-21T01:36:35.424Z,0.00
2023-07-21T01:37:35.445Z,0.00
2023-07-21T01:38:35.474Z,0.00
2023-07-21T01:39:35.547Z,0.00
2023-07-21T01:40:35.536Z,0.00
2023-07-21T01:41:35.613Z,0.00
2023-07-21T01:42:35.607Z,0.00
2023-07-21T01:44:36.869Z,0.00
2023-07-21T01:47:48.693Z,0.00
2023-07-21T01:49:48.596Z,0.00
2023-07-21T01:53:48.498Z,0.00
2023-07-21T01:58:43.120Z,0.00
2023-07-21T02:00:51.190Z,0.00
2023-07-21T02:07:08.664Z,0.00
2023-07-21T02:08:08.693Z,0.00
2023-07-21T02:09:08.723Z,0.00
2023-07-21T02:10:08.748Z,0.00
2023-07-21T03:11:55.838Z,0.00
2023-07-21T03:23:21.898Z,4.00
2023-07-21T03:27:22.018Z,8.00
2023-07-21T03:53:36.273Z,72.00
2023-07-21T03:54:27.179Z,76.00
2023-07-21T03:55:24.635Z,88.00
2023-07-21T03:57:24.670Z,100.00
2023-07-21T03:59:24.608Z,120.00
2023-07-21T04:01:24.669Z,148.00
2023-07-21T04:07:24.728Z,252.00
2023-07-21T04:34:26.506Z,380.00
2023-07-21T05:13:29.603Z,4004.00
2023-07-21T05:19:26.794Z,4856.00
2023-07-21T05:20:28.142Z,5088.00
2023-07-21T05:21:26.852Z,5328.00
2023-07-21T05:22:26.904Z,5464.00
2023-07-21T05:23:26.925Z,5536.00
2023-07-21T05:24:27.306Z,5664.00
2023-07-21T05:25:26.983Z,5824.00
2023-07-21T05:26:27.239Z,5992.00
2023-07-21T05:27:27.346Z,6112.00
2023-07-21T05:38:27.382Z,5964.00
2023-07-21T05:40:27.410Z,5096.00
2023-07-21T05:41:27.759Z,4780.00
2023-07-21T05:42:27.481Z,4624.00
2023-07-21T05:44:27.564Z,4908.00
2023-07-21T05:46:27.939Z,5552.00
2023-07-21T05:47:27.657Z,5720.00
2023-07-21T05:48:28.067Z,5892.00
2023-07-21T05:49:28.192Z,6104.00
2023-07-21T06:08:28.277Z,8644.00
2023-07-21T06:16:28.710Z,6968.00
2023-07-21T06:18:28.545Z,7096.00
2023-07-21T06:21:30.179Z,9148.00
2023-07-21T06:32:06.877Z,15664.00
2023-07-21T06:35:06.949Z,20416.00
2023-07-21T06:36:07.584Z,19744.00
2023-07-21T06:39:10.101Z,45024.00
2023-07-21T06:41:09.754Z,53920.00
2023-07-21T06:42:07.168Z,39424.00
2023-07-21T06:43:07.199Z,52800.00
2023-07-21T06:44:07.231Z,37472.00
2023-07-21T06:45:07.272Z,46944.00
2023-07-21T06:46:08.532Z,48640.00
2023-07-21T06:47:07.320Z,39808.00
2023-07-21T06:48:07.551Z,16412.00
2023-07-21T06:49:11.020Z,14564.00
2023-07-21T06:50:07.421Z,17504.00
2023-07-21T06:51:07.447Z,17568.00
2023-07-21T06:52:07.489Z,16204.00
2023-07-21T06:53:07.834Z,15252.00
2023-07-21T06:54:07.544Z,15972.00
2023-07-21T06:55:07.592Z,17920.00
2023-07-21T06:56:07.617Z,17824.00
2023-07-21T06:57:07.643Z,15300.00
2023-07-21T06:58:07.682Z,13492.00
2023-07-21T06:59:07.728Z,12580.00
2023-07-21T07:00:07.744Z,11208.00
2023-07-21T07:01:07.972Z,11088.00
2023-07-21T07:02:07.845Z,10860.00
2023-07-21T07:03:08.510Z,10800.00
2023-07-21T07:04:07.944Z,11440.00
2023-07-21T07:05:07.912Z,11804.00
2023-07-21T07:06:07.929Z,11256.00
2023-07-21T07:07:07.963Z,11376.00
2023-07-21T07:08:07.996Z,10764.00
2023-07-21T07:09:08.231Z,9168.00
2023-07-21T07:10:08.062Z,8940.00
2023-07-21T07:11:08.293Z,9560.00
2023-07-21T07:12:08.125Z,9892.00
2023-07-21T07:13:08.156Z,9680.00
2023-07-21T07:14:08.505Z,9500.00
2023-07-21T07:15:08.230Z,9448.00
2023-07-21T07:16:08.297Z,9416.00
2023-07-21T07:17:08.304Z,10060.00
2023-07-21T07:18:08.376Z,10516.00
2023-07-21T07:20:08.398Z,22560.00
2023-07-21T07:21:08.421Z,24224.00
2023-07-21T07:23:08.693Z,21824.00
2023-07-21T07:24:08.744Z,18432.00
2023-07-21T07:34:10.046Z,13516.00
2023-07-21T07:35:09.068Z,13972.00
2023-07-21T07:39:10.884Z,15876.00
2023-07-21T07:49:09.316Z,32480.00
2023-07-21T07:50:09.661Z,49184.00
2023-07-21T07:51:09.768Z,45472.00
2023-07-21T07:53:09.448Z,20960.00
2023-07-21T07:54:09.472Z,25632.00
2023-07-21T07:55:09.519Z,53920.00
2023-07-21T07:56:09.529Z,50880.00
2023-07-21T07:57:09.561Z,50272.00
2023-07-21T07:58:09.593Z,49856.00
2023-07-21T07:59:09.629Z,45856.00
2023-07-21T08:00:09.664Z,45152.00
2023-07-21T08:01:09.729Z,46016.00
2023-07-21T08:02:09.787Z,45408.00
2023-07-21T08:03:09.841Z,48928.00
2023-07-21T08:04:09.893Z,19328.00
2023-07-21T08:05:09.851Z,18016.00
2023-07-21T08:06:09.895Z,17600.00
2023-07-21T08:07:09.902Z,24192.00
2023-07-21T08:08:13.777Z,17344.00
2023-07-21T08:09:09.971Z,16928.00
2023-07-21T08:10:10.022Z,33408.00
2023-07-21T08:11:10.061Z,33408.00
2023-07-21T08:12:10.072Z,16928.00
2023-07-21T08:13:10.106Z,15200.00
2023-07-21T08:14:10.138Z,14828.00
2023-07-21T08:15:10.175Z,15244.00
2023-07-21T08:16:10.340Z,15576.00
2023-07-21T08:17:10.363Z,14280.00
2023-07-21T08:18:10.314Z,14036.00
2023-07-21T08:19:10.332Z,15172.00
2023-07-21T08:20:10.346Z,18016.00
2023-07-21T08:21:10.376Z,26240.00
2023-07-21T08:22:10.423Z,24832.00
2023-07-21T08:23:23.207Z,31200.00
2023-07-21T08:24:10.523Z,36032.00
2023-07-21T08:25:10.514Z,40992.00
2023-07-21T08:26:10.550Z,37792.00
2023-07-21T08:27:13.271Z,37664.00
2023-07-21T08:28:10.611Z,37568.00
2023-07-21T08:29:10.648Z,34912.00
2023-07-21T08:30:10.695Z,34496.00
2023-07-21T08:31:10.760Z,32704.00
2023-07-21T08:32:10.813Z,36096.00
2023-07-21T08:33:10.839Z,30368.00
2023-07-21T08:34:10.824Z,29856.00
2023-07-21T08:35:10.860Z,29472.00
2023-07-21T08:36:10.886Z,28736.00
2023-07-21T08:37:10.957Z,22432.00
2023-07-21T08:38:10.966Z,17440.00
2023-07-21T08:39:10.989Z,19136.00
2023-07-21T08:40:11.040Z,19680.00
2023-07-21T08:41:11.060Z,18976.00
2023-07-21T08:42:11.099Z,19808.00
2023-07-21T08:43:11.159Z,18272.00
2023-07-21T08:44:11.157Z,16064.00
2023-07-21T08:45:13.199Z,14804.00
2023-07-21T08:46:11.296Z,13848.00
2023-07-21T08:47:11.258Z,13404.00
2023-07-21T08:48:11.294Z,13356.00
2023-07-21T08:49:11.333Z,15056.00
2023-07-21T08:50:11.361Z,13688.00
2023-07-21T08:51:11.394Z,16576.00
2023-07-21T08:52:11.434Z,16864.00
2023-07-21T08:53:14.200Z,14760.00
2023-07-21T08:54:11.502Z,17088.00
2023-07-21T08:55:11.536Z,15704.00
2023-07-21T08:56:11.575Z,15568.00
2023-07-21T08:57:11.598Z,14900.00
2023-07-21T08:58:11.625Z,14228.00
2023-07-21T08:59:11.995Z,14400.00
2023-07-21T09:00:12.021Z,17440.00
2023-07-21T09:01:11.770Z,16704.00
2023-07-21T09:02:11.765Z,16864.00
2023-07-21T09:03:11.942Z,16416.00
2023-07-21T09:04:11.868Z,14212.00
2023-07-21T09:05:11.903Z,14576.00
2023-07-21T09:06:11.897Z,14668.00
2023-07-21T09:07:11.932Z,13164.00
2023-07-21T09:08:11.979Z,13400.00
2023-07-21T09:09:12.000Z,15428.00
2023-07-21T09:10:12.040Z,23168.00
2023-07-21T09:11:12.064Z,25824.00
2023-07-21T09:12:12.106Z,21696.00
2023-07-21T09:13:12.146Z,16544.00
2023-07-21T09:14:12.163Z,16512.00
2023-07-21T09:15:12.226Z,15568.00
2023-07-21T09:16:12.356Z,14480.00
2023-07-21T09:17:12.264Z,13996.00
2023-07-21T09:18:12.298Z,14420.00
2023-07-21T09:19:12.339Z,14960.00
2023-07-21T09:20:12.369Z,15220.00
2023-07-21T09:21:12.413Z,21664.00
2023-07-21T09:22:12.437Z,23392.00
2023-07-21T09:23:12.465Z,19680.00
2023-07-21T09:24:12.525Z,16896.00
2023-07-21T09:25:12.532Z,17120.00
2023-07-21T09:26:12.564Z,17472.00
2023-07-21T09:27:12.614Z,14204.00
2023-07-21T09:28:12.628Z,14180.00
2023-07-21T09:29:13.084Z,17856.00
2023-07-21T09:30:13.411Z,17632.00
2023-07-21T09:31:13.970Z,18112.00
2023-07-21T09:32:13.772Z,17536.00
2023-07-21T09:35:38.686Z,10500.00
2023-07-21T10:44:31.249Z,14004.00
2023-07-21T10:45:31.461Z,13604.00
2023-07-21T10:46:31.625Z,13668.00
2023-07-21T10:47:31.416Z,13640.00
2023-07-21T10:48:31.418Z,13148.00
2023-07-21T10:49:31.399Z,12848.00
2023-07-21T10:50:31.431Z,12460.00
2023-07-21T10:51:31.675Z,12080.00
2023-07-21T10:52:32.005Z,12172.00
2023-07-21T10:53:31.541Z,12508.00
2023-07-21T10:54:31.566Z,12728.00
2023-07-21T10:55:31.615Z,12668.00
2023-07-21T10:56:31.634Z,12304.00
2023-07-21T10:57:32.183Z,12092.00
2023-07-21T10:59:31.730Z,11600.00
2023-07-21T11:00:31.837Z,11064.00
2023-07-21T11:01:31.868Z,10576.00
2023-07-21T11:02:31.908Z,10356.00
2023-07-21T11:03:31.983Z,10312.00
2023-07-21T11:04:31.903Z,10356.00
2023-07-21T11:05:31.936Z,10524.00
2023-07-21T11:06:31.972Z,10812.00
2023-07-21T11:07:31.990Z,11260.00
2023-07-21T11:08:32.024Z,11688.00
2023-07-21T11:09:32.057Z,11992.00
2023-07-21T11:10:32.095Z,12164.00
2023-07-21T11:11:32.123Z,12352.00
2023-07-21T11:12:32.160Z,12392.00
2023-07-21T11:13:32.200Z,12124.00
2023-07-21T11:14:32.223Z,11800.00
2023-07-21T11:15:32.269Z,11728.00
2023-07-21T11:16:32.360Z,11832.00
2023-07-21T11:17:32.373Z,12280.00
2023-07-21T11:18:32.385Z,12632.00
2023-07-21T11:19:32.415Z,12844.00
2023-07-21T11:20:32.421Z,13060.00
2023-07-21T11:21:32.455Z,13208.00
2023-07-21T11:22:32.491Z,13276.00
2023-07-21T11:23:32.520Z,13284.00
2023-07-21T11:24:32.860Z,13324.00
2023-07-21T11:25:32.584Z,13316.00
2023-07-21T11:26:32.621Z,13352.00
2023-07-21T11:27:32.662Z,13400.00
2023-07-21T11:28:32.697Z,13396.00
2023-07-21T11:29:32.714Z,13244.00
2023-07-21T11:30:32.754Z,12808.00
2023-07-21T11:31:32.815Z,12420.00
2023-07-21T11:32:33.150Z,12068.00
2023-07-21T11:33:32.849Z,11724.00
2023-07-21T11:34:32.897Z,11392.00
2023-07-21T11:35:32.935Z,11076.00
2023-07-21T11:36:32.946Z,10608.00
2023-07-21T11:37:33.181Z,10084.00
2023-07-21T11:38:33.013Z,9604.00
2023-07-21T11:39:33.045Z,9192.00
2023-07-21T11:40:33.092Z,8812.00
2023-07-21T11:41:33.109Z,8500.00
2023-07-21T11:42:33.150Z,8288.00
2023-07-21T11:43:33.189Z,8156.00
2023-07-21T11:44:33.250Z,8220.00
2023-07-21T11:45:33.240Z,8384.00
2023-07-21T11:46:33.311Z,8552.00
2023-07-21T11:47:33.350Z,8472.00
2023-07-21T11:48:33.360Z,8396.00
2023-07-21T11:49:33.371Z,8544.00
2023-07-21T11:50:33.611Z,8800.00
2023-07-21T11:51:33.437Z,9192.00
2023-07-21T11:52:33.671Z,9604.00
2023-07-21T11:53:33.511Z,10024.00
2023-07-21T11:54:33.687Z,10564.00
2023-07-21T11:55:33.567Z,11452.00
2023-07-21T11:56:33.601Z,12948.00
2023-07-21T11:57:33.631Z,14300.00
2023-07-21T11:58:33.672Z,15180.00
2023-07-21T11:59:33.698Z,15560.00
2023-07-21T12:00:33.725Z,15840.00
2023-07-21T12:01:33.779Z,15680.00
2023-07-21T12:02:33.862Z,15236.00
2023-07-21T12:03:33.963Z,15200.00
2023-07-21T12:04:33.901Z,15352.00
2023-07-21T12:05:33.895Z,14584.00
2023-07-21T12:06:33.918Z,14120.00
2023-07-21T12:07:33.962Z,14132.00
2023-07-21T12:08:33.988Z,13452.00
2023-07-21T12:09:34.072Z,13076.00
2023-07-21T12:10:34.056Z,12256.00
2023-07-21T12:11:34.291Z,11572.00
2023-07-21T12:12:34.121Z,11560.00
2023-07-21T12:13:34.160Z,12032.00
2023-07-21T12:14:34.185Z,12040.00
2023-07-21T12:15:34.230Z,11884.00
2023-07-21T12:16:34.475Z,11352.00
2023-07-21T12:17:34.311Z,10376.00
2023-07-21T12:18:34.334Z,9440.00
2023-07-21T12:19:34.340Z,9148.00
2023-07-21T12:20:34.413Z,9408.00
2023-07-21T12:21:41.283Z,9364.00
2023-07-21T12:22:34.447Z,9364.00
2023-07-21T12:23:34.678Z,9944.00
2023-07-21T12:24:34.570Z,10576.00
2023-07-21T12:25:34.538Z,10864.00
2023-07-21T12:26:34.577Z,10912.00
2023-07-21T12:27:34.818Z,10664.00
2023-07-21T12:28:34.805Z,10168.00
2023-07-21T12:29:44.982Z,9572.00
2023-07-21T12:30:35.341Z,9052.00
2023-07-21T12:31:35.142Z,8724.00
2023-07-21T12:32:34.908Z,8900.00
2023-07-21T12:33:34.887Z,9320.00
2023-07-21T12:34:34.937Z,9592.00
2023-07-21T12:35:34.869Z,9656.00
2023-07-21T12:36:34.950Z,9572.00
2023-07-21T12:37:34.951Z,9576.00
2023-07-21T12:38:34.980Z,9628.00
2023-07-21T12:39:35.015Z,9748.00
2023-07-21T12:40:35.048Z,9732.00
2023-07-21T12:41:35.076Z,9452.00
2023-07-21T12:42:35.106Z,9576.00
2023-07-21T12:43:35.151Z,9872.00
2023-07-21T12:44:35.160Z,11076.00
2023-07-21T12:45:35.220Z,10960.00
2023-07-21T12:46:35.254Z,11300.00
2023-07-21T12:47:35.264Z,11680.00
2023-07-21T12:48:35.301Z,10156.00
2023-07-21T12:49:35.339Z,9724.00
2023-07-21T12:50:35.359Z,9792.00
2023-07-21T12:51:35.591Z,11632.00
2023-07-21T12:52:35.452Z,11944.00
2023-07-21T12:53:35.453Z,11644.00
2023-07-21T12:54:35.697Z,11144.00
2023-07-21T12:55:35.531Z,10816.00
2023-07-21T12:56:35.551Z,10148.00
2023-07-21T12:57:35.581Z,10824.00
2023-07-21T12:58:35.617Z,10508.00
2023-07-21T12:59:35.658Z,10140.00
2023-07-21T13:00:35.695Z,9756.00
2023-07-21T13:01:35.851Z,9484.00
2023-07-21T13:02:35.906Z,9512.00
2023-07-21T13:03:35.911Z,9780.00
2023-07-21T13:04:36.126Z,10108.00
2023-07-21T13:05:49.879Z,9972.00
2023-07-21T13:06:36.902Z,9532.00
2023-07-21T13:07:35.916Z,9684.00
2023-07-21T13:08:35.982Z,9748.00
2023-07-21T13:09:35.974Z,10108.00
2023-07-21T13:10:36.014Z,10272.00
2023-07-21T13:11:36.040Z,11020.00
2023-07-21T13:12:36.073Z,11248.00
2023-07-21T13:13:36.106Z,9808.00
2023-07-21T13:14:36.157Z,9556.00
2023-07-21T13:15:36.171Z,8964.00
2023-07-21T13:16:36.342Z,8164.00
2023-07-21T13:17:36.276Z,7316.00
2023-07-21T13:18:36.306Z,6756.00
2023-07-21T13:19:36.316Z,6808.00
2023-07-21T13:20:36.350Z,6980.00
2023-07-21T13:21:36.369Z,7376.00
2023-07-21T13:22:36.402Z,7988.00
2023-07-21T13:23:36.446Z,8360.00
2023-07-21T13:24:36.581Z,8780.00
2023-07-21T13:25:36.496Z,9340.00
2023-07-21T13:26:36.532Z,10484.00
2023-07-21T13:27:36.565Z,10988.00
2023-07-21T13:28:36.617Z,10432.00
2023-07-21T13:29:36.643Z,9844.00
2023-07-21T13:30:36.685Z,8140.00
2023-07-21T13:31:36.744Z,8724.00
2023-07-21T13:32:36.984Z,8712.00
2023-07-21T13:33:36.966Z,8576.00
2023-07-21T13:34:36.801Z,8600.00
2023-07-21T13:35:36.848Z,8312.00
2023-07-21T13:36:36.891Z,8328.00
2023-07-21T13:38:36.932Z,6660.00
2023-07-21T13:42:37.094Z,4144.00
2023-07-21T13:43:37.288Z,3592.00
2023-07-21T13:49:37.480Z,2524.00
2023-07-21T13:51:37.339Z,2344.00
2023-07-21T13:52:37.359Z,2456.00
2023-07-21T13:53:38.322Z,2824.00
2023-07-21T13:54:37.734Z,3496.00
2023-07-21T13:55:37.453Z,4504.00
2023-07-21T13:57:37.537Z,6620.00
2023-07-21T13:58:37.589Z,8760.00
2023-07-21T13:59:37.579Z,10008.00
2023-07-21T14:01:37.703Z,11744.00
2023-07-21T14:02:37.781Z,11920.00
2023-07-21T14:08:37.862Z,10044.00
2023-07-21T14:09:40.580Z,11116.00
2023-07-21T14:10:37.931Z,11360.00
2023-07-21T14:11:37.978Z,11080.00
2023-07-21T14:12:38.193Z,10644.00
2023-07-21T14:13:38.369Z,10328.00
2023-07-21T14:14:38.371Z,10388.00
2023-07-21T14:15:38.107Z,9604.00
2023-07-21T14:16:38.161Z,9068.00
2023-07-21T14:17:38.471Z,9420.00
2023-07-21T14:18:38.203Z,8572.00
2023-07-21T14:19:38.426Z,8192.00
2023-07-21T14:20:38.280Z,7784.00
2023-07-21T14:21:38.309Z,7608.00
2023-07-21T14:22:38.315Z,7644.00
2023-07-21T14:23:38.343Z,7732.00
2023-07-21T14:24:38.409Z,7712.00
2023-07-21T14:25:38.422Z,7352.00
2023-07-21T14:26:38.648Z,6844.00
2023-07-21T14:27:39.712Z,6448.00
2023-07-21T14:28:38.513Z,6284.00
2023-07-21T14:29:38.537Z,6252.00
2023-07-21T14:30:38.674Z,6388.00
2023-07-21T14:31:38.613Z,6496.00
2023-07-21T14:33:38.665Z,6160.00
2023-07-21T14:34:38.704Z,5876.00
2023-07-21T14:35:38.716Z,5644.00
2023-07-21T14:36:38.753Z,5404.00
2023-07-21T14:37:39.124Z,5132.00
2023-07-21T14:38:38.820Z,4752.00
2023-07-21T14:40:38.894Z,4036.00
2023-07-21T14:42:38.951Z,3488.00
2023-07-21T14:43:39.165Z,3220.00
2023-07-21T14:44:39.006Z,3000.00
2023-07-21T14:45:39.031Z,2800.00
2023-07-21T14:46:39.770Z,2608.00
2023-07-21T14:50:40.125Z,2144.00
2023-07-21T14:56:39.906Z,1664.00
2023-07-21T15:01:39.959Z,1700.00
2023-07-21T15:03:39.891Z,1732.00
2023-07-21T15:23:40.230Z,2084.00
2023-07-21T15:24:42.269Z,2116.00
2023-07-21T15:29:40.407Z,1996.00
2023-07-21T15:30:42.503Z,1956.00
2023-07-21T16:00:41.758Z,3120.00
2023-07-21T16:04:44.049Z,3428.00
2023-07-21T16:09:42.093Z,3396.00
2023-07-21T16:21:42.680Z,3664.00
2023-07-21T16:24:43.422Z,4824.00
2023-07-21T16:40:43.384Z,3944.00
2023-07-21T16:42:43.201Z,4064.00
2023-07-21T16:53:44.341Z,5232.00
2023-07-21T17:07:44.866Z,4492.00
2023-07-21T17:08:44.188Z,4244.00
2023-07-21T17:17:44.392Z,3972.00
2023-07-21T17:22:44.016Z,3328.00
2023-07-21T17:29:44.431Z,2168.00
2023-07-21T17:33:50.829Z,1580.00
2023-07-21T17:46:45.036Z,1708.00
2023-07-21T17:56:46.447Z,1244.00
2023-07-21T18:03:45.629Z,1432.00
2023-07-21T18:22:46.981Z,1636.00
2023-07-21T18:28:46.118Z,1552.00
2023-07-21T18:30:46.968Z,1488.00
2023-07-21T18:56:49.250Z,968.00
2023-07-21T18:57:46.656Z,904.00
2023-07-21T18:58:46.685Z,864.00
2023-07-21T19:00:46.832Z,804.00
2023-07-21T19:01:46.843Z,780.00
2023-07-21T19:02:46.858Z,756.00
2023-07-21T19:03:47.431Z,728.00
2023-07-21T19:04:46.889Z,700.00
2023-07-21T19:06:44.463Z,652.00
2023-07-21T19:07:44.504Z,628.00
2023-07-21T19:08:44.521Z,604.00
2023-07-21T19:09:44.569Z,580.00
2023-07-21T19:10:44.598Z,552.00
2023-07-21T19:11:44.617Z,532.00
2023-07-21T19:12:44.635Z,504.00
2023-07-21T19:13:44.676Z,480.00
2023-07-21T19:14:44.699Z,456.00
2023-07-21T19:15:47.557Z,432.00
2023-07-21T19:16:44.821Z,408.00
2023-07-21T19:18:27.337Z,368.00
2023-07-21T19:19:27.363Z,348.00
2023-07-21T19:20:27.391Z,328.00
2023-07-21T19:21:27.674Z,308.00
2023-07-21T19:22:27.449Z,288.00
2023-07-21T19:23:27.486Z,268.00
2023-07-21T19:24:27.556Z,248.00
2023-07-21T19:25:27.536Z,228.00
2023-07-21T19:26:27.562Z,208.00
2023-07-21T19:27:27.595Z,192.00
2023-07-21T19:28:27.636Z,176.00
2023-07-21T19:29:27.684Z,168.00
2023-07-21T19:30:27.693Z,156.00
2023-07-21T19:31:28.875Z,148.00
2023-07-21T19:33:27.989Z,124.00
2023-07-21T19:34:27.813Z,116.00
2023-07-21T19:37:27.889Z,88.00
2023-07-21T19:38:28.131Z,80.00
2023-07-21T19:40:27.990Z,68.00
2023-07-21T19:45:28.336Z,40.00
2023-07-21T19:47:28.937Z,32.00
2023-07-21T19:51:28.747Z,20.00
2023-07-21T19:53:28.576Z,16.00
2023-07-21T19:54:28.398Z,12.00
2023-07-21T19:55:29.329Z,12.00
2023-07-21T20:00:30.102Z,4.00
2023-07-21T20:01:29.381Z,4.00
2023-07-21T20:03:28.832Z,4.00
2023-07-21T20:05:29.137Z,4.00
2023-07-21T20:07:28.813Z,4.00
2023-07-21T20:10:29.078Z,0.00
2023-07-21T20:17:29.286Z,0.00
2023-07-21T20:29:30.750Z,0.00
2023-07-21T20:31:42.512Z,0.00
2023-07-21T20:33:30.455Z,0.00
2023-07-21T20:56:30.219Z,0.00
2023-07-21T21:33:31.982Z,0.00
2023-07-21T21:50:31.794Z,0.00
2023-07-21T21:51:32.186Z,0.00
2023-07-21T21:52:32.014Z,0.00
2023-07-21T21:53:32.541Z,0.00
2023-07-21T21:55:32.107Z,0.00
2023-07-21T21:56:32.491Z,0.00
2023-07-21T21:57:31.990Z,0.00
2023-07-21T22:18:33.526Z,0.00
2023-07-21T22:21:32.930Z,0.00
2023-07-21T22:22:33.065Z,0.00
2023-07-21T22:25:33.156Z,0.00
2023-07-21T22:33:33.478Z,0.00
2023-07-21T22:34:33.637Z,0.00
2023-07-21T22:42:33.208Z,0.00
2023-07-21T22:51:33.683Z,0.00
2023-07-21T22:58:34.978Z,0.00
2023-07-21T23:03:34.025Z,0.00
2023-07-21T23:05:33.890Z,0.00
2023-07-21T23:06:34.544Z,0.00
2023-07-21T23:07:34.127Z,0.00
2023-07-21T23:33:34.657Z,0.00
2023-07-21T23:38:48.324Z,0.00
